createdAt,value
2023-08-12T00:00:54.922Z,51.44
2023-08-12T00:02:00.254Z,51.42
2023-08-12T00:03:05.928Z,51.38
2023-08-12T00:04:11.298Z,51.43
2023-08-12T00:05:16.674Z,51.43
2023-08-12T00:06:22.006Z,51.4
2023-08-12T00:07:27.325Z,51.37
2023-08-12T00:08:32.678Z,51.36
2023-08-12T00:09:38.002Z,51.33
2023-08-12T00:10:43.325Z,51.34
2023-08-12T00:11:48.683Z,51.33
2023-08-12T00:12:54.011Z,51.33
2023-08-12T00:13:59.365Z,51.32
2023-08-12T00:15:04.704Z,51.34
2023-08-12T00:16:10.188Z,51.38
2023-08-12T00:17:15.774Z,51.35
2023-08-12T00:18:21.101Z,51.37
2023-08-12T00:19:26.630Z,51.33
2023-08-12T00:20:31.979Z,51.33
2023-08-12T00:21:37.296Z,51.34
2023-08-12T00:22:42.632Z,51.35
2023-08-12T00:23:48.045Z,51.31
2023-08-12T00:24:53.396Z,51.35
2023-08-12T00:25:58.729Z,51.33
2023-08-12T00:27:04.104Z,51.34
2023-08-12T00:28:09.414Z,51.3
2023-08-12T00:29:14.779Z,51.31
2023-08-12T00:30:20.106Z,51.32
2023-08-12T00:31:25.622Z,51.3
2023-08-12T00:32:31.149Z,51.29
2023-08-12T00:33:36.460Z,51.28
2023-08-12T00:34:41.748Z,51.26
2023-08-12T00:35:47.085Z,51.22
2023-08-12T00:36:52.509Z,51.27
2023-08-12T00:37:57.873Z,51.28
2023-08-12T00:39:03.199Z,51.29
2023-08-12T00:40:08.534Z,51.29
2023-08-12T00:41:13.871Z,51.3
2023-08-12T00:42:19.248Z,51.33
2023-08-12T00:43:24.577Z,51.31
2023-08-12T00:44:29.920Z,51.31
2023-08-12T00:45:35.254Z,51.29
2023-08-12T00:46:40.723Z,51.3
2023-08-12T00:47:46.251Z,51.3
2023-08-12T00:48:51.588Z,51.29
2023-08-12T00:49:56.900Z,51.28
2023-08-12T00:51:02.202Z,51.27
2023-08-12T00:52:07.522Z,51.25
2023-08-12T00:53:12.844Z,51.19
2023-08-12T00:54:18.247Z,51.24
2023-08-12T00:55:23.554Z,51.23
2023-08-12T00:56:28.899Z,51.19
2023-08-12T00:57:34.240Z,51.13
2023-08-12T00:58:39.552Z,51.27
2023-08-12T00:59:44.846Z,51.24
2023-08-12T01:00:50.198Z,51.23
2023-08-12T01:01:55.649Z,51.25
2023-08-12T01:03:01.471Z,51.18
2023-08-12T01:04:07.133Z,51.18
2023-08-12T01:05:12.465Z,51.22
2023-08-12T01:06:17.830Z,51.17
2023-08-12T01:07:23.173Z,51.15
2023-08-12T01:08:28.499Z,51.19
2023-08-12T01:09:33.819Z,51.13
2023-08-12T01:10:39.314Z,51.18
2023-08-12T01:11:44.612Z,51.12
2023-08-12T01:12:49.911Z,51.04
2023-08-12T01:13:55.275Z,51.12
2023-08-12T01:15:00.617Z,51.13
2023-08-12T01:16:05.940Z,51.17
2023-08-12T01:17:12.507Z,51.23
2023-08-12T01:18:17.975Z,51.06
2023-08-12T01:19:23.287Z,51.1
2023-08-12T01:20:28.661Z,51.15
2023-08-12T01:21:33.971Z,51.01
2023-08-12T01:22:39.249Z,51.02
2023-08-12T01:23:44.580Z,51
2023-08-12T01:24:49.874Z,51.04
2023-08-12T01:25:55.204Z,51.04
2023-08-12T01:27:00.525Z,51.13
2023-08-12T01:28:05.817Z,51.12
2023-08-12T01:29:11.141Z,51.05
2023-08-12T01:30:16.457Z,51.07
2023-08-12T01:31:21.969Z,51.12
2023-08-12T01:32:27.449Z,50.99
2023-08-12T01:33:32.793Z,50.97
2023-08-12T01:34:38.110Z,51.02
2023-08-12T01:35:43.437Z,50.99
2023-08-12T01:36:48.742Z,50.97
2023-08-12T01:37:54.120Z,50.95
2023-08-12T01:38:59.397Z,51.1
2023-08-12T01:40:04.812Z,50.98
2023-08-12T01:41:10.127Z,50.9
2023-08-12T01:42:15.419Z,51.04
2023-08-12T01:43:21.044Z,51
2023-08-12T01:44:26.422Z,50.99
2023-08-12T01:45:31.738Z,50.94
2023-08-12T01:46:37.156Z,50.9
2023-08-12T01:47:42.547Z,51
2023-08-12T01:48:47.922Z,50.94
2023-08-12T01:49:53.226Z,50.89
2023-08-12T01:50:58.529Z,50.96
2023-08-12T01:52:03.838Z,50.92
2023-08-12T01:53:09.185Z,50.8
2023-08-12T01:54:14.523Z,50.85
2023-08-12T01:55:19.827Z,50.86
2023-08-12T01:56:25.155Z,50.95
2023-08-12T01:57:30.478Z,51
2023-08-12T01:58:35.780Z,50.83
2023-08-12T01:59:41.113Z,50.77
2023-08-12T02:00:46.497Z,50.79
2023-08-12T02:01:51.936Z,51.02
2023-08-12T02:02:57.515Z,50.84
2023-08-12T02:04:02.963Z,50.73
2023-08-12T02:05:08.300Z,50.79
2023-08-12T02:06:13.681Z,50.84
2023-08-12T02:07:19.069Z,50.74
2023-08-12T02:08:24.584Z,50.79
2023-08-12T02:09:29.954Z,50.68
2023-08-12T02:10:35.264Z,50.67
2023-08-12T02:11:40.619Z,50.69
2023-08-12T02:12:50.268Z,50.56
2023-08-12T02:13:55.588Z,50.6
2023-08-12T02:15:00.912Z,50.7
2023-08-12T02:16:06.388Z,50.86
2023-08-12T02:17:12.502Z,50.68
2023-08-12T02:18:18.026Z,50.61
2023-08-12T02:19:23.323Z,50.74
2023-08-12T02:20:29.723Z,50.67
2023-08-12T02:21:35.010Z,50.63
2023-08-12T02:22:41.184Z,50.61
2023-08-12T02:23:46.534Z,50.6
2023-08-12T02:24:51.861Z,50.63
2023-08-12T02:25:57.167Z,50.67
2023-08-12T02:27:02.492Z,50.68
2023-08-12T02:28:07.814Z,50.6
2023-08-12T02:29:13.130Z,50.52
2023-08-12T02:30:18.538Z,50.58
2023-08-12T02:31:23.945Z,50.66
2023-08-12T02:32:29.368Z,50.63
2023-08-12T02:33:34.723Z,50.66
2023-08-12T02:34:40.051Z,50.4
2023-08-12T02:35:45.384Z,50.52
2023-08-12T02:36:50.673Z,50.5
2023-08-12T02:37:55.980Z,50.58
2023-08-12T02:39:01.286Z,50.5
2023-08-12T02:40:06.632Z,50.46
2023-08-12T02:41:11.984Z,50.47
2023-08-12T02:42:17.285Z,50.6
2023-08-12T02:43:22.711Z,50.46
2023-08-12T02:44:28.005Z,50.48
2023-08-12T02:45:33.434Z,50.51
2023-08-12T02:46:38.808Z,50.43
2023-08-12T02:47:44.186Z,50.41
2023-08-12T02:48:49.513Z,50.42
2023-08-12T02:49:54.816Z,50.42
2023-08-12T02:51:00.134Z,50.61
2023-08-12T02:52:05.876Z,50.38
2023-08-12T02:53:11.210Z,50.5
2023-08-12T02:54:16.522Z,50.49
2023-08-12T02:55:21.918Z,50.45
2023-08-12T02:56:27.229Z,50.44
2023-08-12T02:57:32.532Z,50.62
2023-08-12T02:58:38.000Z,50.34
2023-08-12T02:59:43.421Z,50.41
2023-08-12T03:00:48.762Z,50.61
2023-08-12T03:01:54.093Z,50.41
2023-08-12T03:02:59.673Z,50.32
2023-08-12T03:04:05.047Z,50.38
2023-08-12T03:05:10.408Z,50.41
2023-08-12T03:06:15.762Z,50.44
2023-08-12T03:07:21.193Z,50.6
2023-08-12T03:08:26.496Z,50.49
2023-08-12T03:09:31.807Z,50.51
2023-08-12T03:10:37.127Z,50.6
2023-08-12T03:11:42.450Z,50.42
2023-08-12T03:12:47.771Z,50.36
2023-08-12T03:13:53.223Z,50.38
2023-08-12T03:14:58.532Z,50.57
2023-08-12T03:16:04.080Z,50.55
2023-08-12T03:17:09.639Z,50.35
2023-08-12T03:18:15.236Z,50.45
2023-08-12T03:19:20.516Z,50.36
2023-08-12T03:20:25.853Z,50.3
2023-08-12T03:21:31.202Z,50.42
2023-08-12T03:22:36.533Z,50.37
2023-08-12T03:23:41.985Z,50.39
2023-08-12T03:24:47.297Z,50.42
2023-08-12T03:25:52.626Z,50.45
2023-08-12T03:26:57.943Z,50.45
2023-08-12T03:28:03.291Z,50.48
2023-08-12T03:29:08.606Z,50.45
2023-08-12T03:30:14.011Z,50.29
2023-08-12T03:31:19.459Z,50.3
2023-08-12T03:32:24.794Z,50.52
2023-08-12T03:33:30.126Z,50.45
2023-08-12T03:34:35.445Z,50.54
2023-08-12T03:35:40.765Z,50.26
2023-08-12T03:36:46.084Z,50.57
2023-08-12T03:37:51.385Z,50.3
2023-08-12T03:38:56.708Z,50.4
2023-08-12T03:40:02.088Z,50.28
2023-08-12T03:41:07.407Z,50.38
2023-08-12T03:42:12.733Z,50.42
2023-08-12T03:43:18.060Z,50.35
2023-08-12T03:44:23.379Z,50.38
2023-08-12T03:45:28.689Z,50.35
2023-08-12T03:46:34.240Z,50.22
2023-08-12T03:47:39.692Z,50.27
2023-08-12T03:48:45.024Z,50.26
2023-08-12T03:49:50.371Z,50.22
2023-08-12T03:50:55.665Z,50.28
2023-08-12T03:52:00.995Z,50.14
2023-08-12T03:53:06.340Z,50.24
2023-08-12T03:54:11.644Z,50.19
2023-08-12T03:55:17.079Z,50.26
2023-08-12T03:56:22.422Z,50.19
2023-08-12T03:57:27.752Z,50.16
2023-08-12T03:58:33.078Z,50.35
2023-08-12T03:59:38.405Z,50.29
2023-08-12T04:00:43.923Z,50.3
2023-08-12T04:01:49.357Z,50.27
2023-08-12T04:02:54.991Z,50.18
2023-08-12T04:04:00.390Z,50.17
2023-08-12T04:05:05.780Z,50.03
2023-08-12T04:06:11.111Z,50.24
2023-08-12T04:07:17.123Z,50.15
2023-08-12T04:08:22.478Z,50.19
2023-08-12T04:09:27.769Z,50.16
2023-08-12T04:10:33.065Z,50.14
2023-08-12T04:11:38.402Z,50.34
2023-08-12T04:12:43.696Z,50.09
2023-08-12T04:13:49.017Z,50.39
2023-08-12T04:14:54.327Z,50.03
2023-08-12T04:15:59.859Z,50.19
2023-08-12T04:17:05.476Z,50.03
2023-08-12T04:18:10.873Z,50.23
2023-08-12T04:19:16.212Z,50.09
2023-08-12T04:20:21.554Z,50.07
2023-08-12T04:21:26.926Z,50.11
2023-08-12T04:22:32.222Z,49.94
2023-08-12T04:23:37.552Z,49.96
2023-08-12T04:24:43.330Z,50.07
2023-08-12T04:25:48.646Z,49.94
2023-08-12T04:26:53.954Z,49.93
2023-08-12T04:27:59.289Z,50.11
2023-08-12T04:29:04.604Z,50.04
2023-08-12T04:30:09.950Z,50.09
2023-08-12T04:31:15.322Z,50.08
2023-08-12T04:32:20.631Z,50.07
2023-08-12T04:33:25.945Z,50.02
2023-08-12T04:34:31.318Z,50
2023-08-12T04:35:36.629Z,50.08
2023-08-12T04:36:44.812Z,50.1
2023-08-12T04:37:50.164Z,49.98
2023-08-12T04:38:55.561Z,49.95
2023-08-12T04:40:00.902Z,49.99
2023-08-12T04:41:06.491Z,50.03
2023-08-12T04:42:11.876Z,50.06
2023-08-12T04:43:17.306Z,50.02
2023-08-12T04:44:22.771Z,50.01
2023-08-12T04:45:28.065Z,49.97
2023-08-12T04:46:33.566Z,50.08
2023-08-12T04:47:39.024Z,50.17
2023-08-12T04:48:44.383Z,50.06
2023-08-12T04:49:49.718Z,50.18
2023-08-12T04:50:55.033Z,50.26
2023-08-12T04:52:00.342Z,50.42
2023-08-12T04:53:05.686Z,50.17
2023-08-12T04:54:11.081Z,50.14
2023-08-12T04:55:16.446Z,50.16
2023-08-12T04:56:21.743Z,50.25
2023-08-12T04:57:27.045Z,50.17
2023-08-12T04:58:32.359Z,50.26
2023-08-12T04:59:37.641Z,50.29
2023-08-12T05:00:42.982Z,50.38
2023-08-12T05:02:06.574Z,50.4
2023-08-12T05:03:12.048Z,50.46
2023-08-12T05:04:17.377Z,50.39
2023-08-12T05:05:22.817Z,50.32
2023-08-12T05:06:28.214Z,50.32
2023-08-12T05:07:33.513Z,50.32
2023-08-12T05:08:38.825Z,50.38
2023-08-12T05:09:44.158Z,50.34
2023-08-12T05:10:49.480Z,50.33
2023-08-12T05:11:54.837Z,50.32
2023-08-12T05:13:00.156Z,50.37
2023-08-12T05:14:05.512Z,50.41
2023-08-12T05:15:10.858Z,50.41
2023-08-12T05:16:16.342Z,50.43
2023-08-12T05:17:21.740Z,50.47
2023-08-12T05:18:27.266Z,50.46
2023-08-12T05:19:32.580Z,50.49
2023-08-12T05:20:37.933Z,50.56
2023-08-12T05:21:43.309Z,50.55
2023-08-12T05:22:48.650Z,50.55
2023-08-12T05:23:54.023Z,50.59
2023-08-12T05:24:59.324Z,50.6
2023-08-12T05:26:04.640Z,50.59
2023-08-12T05:27:09.955Z,50.61
2023-08-12T05:28:15.330Z,50.65
2023-08-12T05:29:20.652Z,50.67
2023-08-12T05:30:26.153Z,50.7
2023-08-12T05:31:31.596Z,50.73
2023-08-12T05:32:37.020Z,50.75
2023-08-12T05:33:42.597Z,50.77
2023-08-12T05:34:47.988Z,50.77
2023-08-12T05:35:53.300Z,50.8
2023-08-12T05:36:58.601Z,50.78
2023-08-12T05:38:03.933Z,50.82
2023-08-12T05:39:09.449Z,50.84
2023-08-12T05:40:14.815Z,50.84
2023-08-12T05:41:20.361Z,50.91
2023-08-12T05:42:25.654Z,51
2023-08-12T05:43:30.950Z,50.98
2023-08-12T05:44:36.263Z,50.97
2023-08-12T05:45:41.654Z,50.98
2023-08-12T05:46:46.967Z,51.01
2023-08-12T05:47:52.426Z,51.07
2023-08-12T05:48:57.821Z,51.03
2023-08-12T05:50:03.160Z,51.06
2023-08-12T05:51:08.487Z,51.08
2023-08-12T05:52:15.157Z,51.07
2023-08-12T05:53:20.798Z,51.09
2023-08-12T05:54:26.144Z,51.05
2023-08-12T05:55:31.596Z,51.11
2023-08-12T05:56:36.928Z,51.1
2023-08-12T05:57:42.388Z,51.13
2023-08-12T05:58:47.711Z,51.16
2023-08-12T05:59:53.001Z,51.17
2023-08-12T06:00:58.400Z,51.11
2023-08-12T06:02:03.757Z,51.1
2023-08-12T06:03:09.177Z,51.08
2023-08-12T06:04:14.515Z,51.09
2023-08-12T06:05:19.821Z,51.07
2023-08-12T06:06:25.156Z,51.13
2023-08-12T06:07:30.475Z,51.1
2023-08-12T06:08:35.812Z,51.1
2023-08-12T06:09:41.136Z,51.17
2023-08-12T06:10:46.430Z,51.23
2023-08-12T06:11:51.835Z,51.25
2023-08-12T06:12:57.307Z,51.21
2023-08-12T06:14:02.611Z,51.2
2023-08-12T06:15:07.912Z,51.35
2023-08-12T06:16:13.481Z,51.38
2023-08-12T06:17:18.852Z,51.31
2023-08-12T06:18:24.203Z,51.28
2023-08-12T06:19:29.545Z,51.46
2023-08-12T06:20:34.870Z,51.44
2023-08-12T06:21:40.258Z,51.58
2023-08-12T06:22:45.594Z,51.58
2023-08-12T06:23:50.870Z,51.62
2023-08-12T06:24:56.195Z,51.53
2023-08-12T06:26:01.611Z,51.67
2023-08-12T06:27:07.060Z,51.66
2023-08-12T06:28:12.582Z,51.69
2023-08-12T06:29:17.884Z,51.85
2023-08-12T06:30:23.176Z,51.89
2023-08-12T06:31:28.715Z,52.05
2023-08-12T06:32:34.096Z,51.93
2023-08-12T06:33:39.413Z,52.03
2023-08-12T06:34:44.698Z,52.15
2023-08-12T06:35:53.656Z,52.01
2023-08-12T06:36:58.984Z,52.21
2023-08-12T06:38:04.306Z,52.12
2023-08-12T06:39:09.683Z,52.17
2023-08-12T06:40:15.052Z,52.23
2023-08-12T06:41:20.382Z,52.28
2023-08-12T06:42:25.708Z,52.37
2023-08-12T06:43:33.050Z,52.35
2023-08-12T06:44:38.360Z,52.46
2023-08-12T06:45:43.756Z,52.4
2023-08-12T06:46:49.114Z,52.58
2023-08-12T06:47:54.562Z,52.58
2023-08-12T06:48:59.893Z,52.5
2023-08-12T06:50:05.267Z,52.68
2023-08-12T06:51:10.567Z,52.9
2023-08-12T06:52:16.275Z,52.95
2023-08-12T06:53:21.627Z,52.9
2023-08-12T06:54:27.010Z,53
2023-08-12T06:55:32.332Z,52.84
2023-08-12T06:56:37.685Z,53.15
2023-08-12T06:57:43.008Z,53.12
2023-08-12T06:58:48.332Z,52.96
2023-08-12T06:59:53.673Z,52.9
2023-08-12T07:00:59.064Z,52.85
2023-08-12T07:02:04.390Z,53
2023-08-12T07:03:09.866Z,53.09
2023-08-12T07:04:15.196Z,53.25
2023-08-12T07:05:20.506Z,53.4
2023-08-12T07:06:25.848Z,53.37
2023-08-12T07:07:31.172Z,53.36
2023-08-12T07:08:36.491Z,53.27
2023-08-12T07:09:41.778Z,53.34
2023-08-12T07:10:47.105Z,53.33
2023-08-12T07:11:52.568Z,53.5
2023-08-12T07:12:57.958Z,53.66
2023-08-12T07:14:03.306Z,53.42
2023-08-12T07:15:08.645Z,53.48
2023-08-12T07:16:14.165Z,53.56
2023-08-12T07:17:19.549Z,53.83
2023-08-12T07:18:24.835Z,53.56
2023-08-12T07:19:30.190Z,53.72
2023-08-12T07:20:35.493Z,53.69
2023-08-12T07:21:40.786Z,53.88
2023-08-12T07:22:46.197Z,53.96
2023-08-12T07:24:06.107Z,53.9
2023-08-12T07:25:11.443Z,53.92
2023-08-12T07:26:16.845Z,54.04
2023-08-12T07:27:22.230Z,53.89
2023-08-12T07:28:27.970Z,53.84
2023-08-12T07:29:33.297Z,53.84
2023-08-12T07:30:38.630Z,53.8
2023-08-12T07:31:43.936Z,53.83
2023-08-12T07:32:49.605Z,53.56
2023-08-12T07:33:54.921Z,53.84
2023-08-12T07:35:00.287Z,53.81
2023-08-12T07:36:05.587Z,53.74
2023-08-12T07:37:10.911Z,53.39
2023-08-12T07:38:16.232Z,53.17
2023-08-12T07:39:21.558Z,53.36
2023-08-12T07:40:26.878Z,53.52
2023-08-12T07:41:32.201Z,53.52
2023-08-12T07:42:37.516Z,53.39
2023-08-12T07:43:42.878Z,53.42
2023-08-12T07:44:48.190Z,53.47
2023-08-12T07:46:11.603Z,53.41
2023-08-12T07:47:16.950Z,53.46
2023-08-12T07:48:22.416Z,53.6
2023-08-12T07:49:27.736Z,53.52
2023-08-12T07:50:33.090Z,53.54
2023-08-12T07:51:38.401Z,53.49
2023-08-12T07:52:43.760Z,53.46
2023-08-12T07:53:49.083Z,53.45
2023-08-12T07:54:54.382Z,53.56
2023-08-12T07:55:59.732Z,53.54
2023-08-12T07:57:05.044Z,53.71
2023-08-12T07:58:10.365Z,53.73
2023-08-12T07:59:15.649Z,53.53
2023-08-12T08:00:21.482Z,53.66
2023-08-12T08:01:26.851Z,53.63
2023-08-12T08:02:32.379Z,53.57
2023-08-12T08:03:37.745Z,53.68
2023-08-12T08:04:43.141Z,53.58
2023-08-12T08:05:48.467Z,53.61
2023-08-12T08:06:54.492Z,53.64
2023-08-12T08:07:59.838Z,53.47
2023-08-12T08:09:05.269Z,53.61
2023-08-12T08:10:10.613Z,53.45
2023-08-12T08:11:15.977Z,53.52
2023-08-12T08:12:21.296Z,53.47
2023-08-12T08:13:26.691Z,53.44
2023-08-12T08:14:31.983Z,53.47
2023-08-12T08:15:37.316Z,53.44
2023-08-12T08:16:43.216Z,53.39
2023-08-12T08:17:48.941Z,53.46
2023-08-12T08:18:54.317Z,53.57
2023-08-12T08:19:59.911Z,53.54
2023-08-12T08:21:08.503Z,53.68
2023-08-12T08:22:14.826Z,53.6
2023-08-12T08:23:20.385Z,53.58
2023-08-12T08:24:25.700Z,53.55
2023-08-12T08:25:31.056Z,53.59
2023-08-12T08:26:36.373Z,53.51
2023-08-12T08:27:44.994Z,53.61
2023-08-12T08:28:50.310Z,53.59
2023-08-12T08:29:55.627Z,53.52
2023-08-12T08:31:01.094Z,53.61
2023-08-12T08:32:06.580Z,53.69
2023-08-12T08:33:12.013Z,53.68
2023-08-12T08:34:17.371Z,53.71
2023-08-12T08:35:22.791Z,53.65
2023-08-12T08:36:28.154Z,53.69
2023-08-12T08:37:33.460Z,53.59
2023-08-12T08:38:38.799Z,53.55
2023-08-12T08:39:44.129Z,53.51
2023-08-12T08:40:49.475Z,53.55
2023-08-12T08:41:54.766Z,53.53
2023-08-12T08:43:00.118Z,53.64
2023-08-12T08:44:05.427Z,53.45
2023-08-12T08:45:10.775Z,53.47
2023-08-12T08:46:16.238Z,53.48
2023-08-12T08:47:21.549Z,53.44
2023-08-12T08:48:26.833Z,53.41
2023-08-12T08:49:32.123Z,53.33
2023-08-12T08:50:37.448Z,53.28
2023-08-12T08:51:42.776Z,53.27
2023-08-12T08:52:48.086Z,53.14
2023-08-12T08:54:03.330Z,53.1
2023-08-12T08:55:11.553Z,53.03
2023-08-12T08:56:18.682Z,52.91
2023-08-12T08:57:49.374Z,52.86
2023-08-12T08:58:54.691Z,52.81
2023-08-12T09:00:01.689Z,52.83
2023-08-12T09:01:07.036Z,52.85
2023-08-12T09:02:13.083Z,52.92
2023-08-12T09:03:18.484Z,52.98
2023-08-12T09:04:23.772Z,53.01
2023-08-12T09:05:29.386Z,53.08
2023-08-12T09:06:34.728Z,52.97
2023-08-12T09:07:40.042Z,52.93
2023-08-12T09:08:45.353Z,52.87
2023-08-12T09:09:50.677Z,52.84
2023-08-12T09:10:55.980Z,52.74
2023-08-12T09:12:01.299Z,52.58
2023-08-12T09:13:06.706Z,52.38
2023-08-12T09:14:12.038Z,52.13
2023-08-12T09:15:17.372Z,52.05
2023-08-12T09:16:22.832Z,51.9
2023-08-12T09:17:28.292Z,52.01
2023-08-12T09:18:33.697Z,52.07
2023-08-12T09:19:39.022Z,52.11
2023-08-12T09:20:44.363Z,51.98
2023-08-12T09:21:49.674Z,52.01
2023-08-12T09:22:54.968Z,52.02
2023-08-12T09:24:00.603Z,52.15
2023-08-12T09:25:05.897Z,52.2
2023-08-12T09:26:11.200Z,52.25
2023-08-12T09:27:16.561Z,52.29
2023-08-12T09:28:21.864Z,52.28
2023-08-12T09:29:27.190Z,52.16
2023-08-12T09:30:32.664Z,51.67
2023-08-12T09:31:38.080Z,51.54
2023-08-12T09:32:43.516Z,51.56
2023-08-12T09:33:48.831Z,51.56
2023-08-12T09:34:54.165Z,51.44
2023-08-12T09:36:00.042Z,51.41
2023-08-12T09:37:05.390Z,51.59
2023-08-12T09:38:10.704Z,51.58
2023-08-12T09:39:16.043Z,51.44
2023-08-12T09:40:21.371Z,51.43
2023-08-12T09:41:26.668Z,51.13
2023-08-12T09:42:32.085Z,50.96
2023-08-12T09:43:37.918Z,50.88
2023-08-12T09:44:43.259Z,50.64
2023-08-12T09:45:48.671Z,50.56
2023-08-12T09:46:53.981Z,50.43
2023-08-12T09:47:59.365Z,50.56
2023-08-12T09:49:04.791Z,50.41
2023-08-12T09:50:10.132Z,50.28
2023-08-12T09:51:15.491Z,50.06
2023-08-12T09:52:20.879Z,50.16
2023-08-12T09:53:26.210Z,50.13
2023-08-12T09:54:31.534Z,50.15
2023-08-12T09:55:36.838Z,50.18
2023-08-12T09:56:42.245Z,50.3
2023-08-12T09:57:47.524Z,50.32
2023-08-12T09:58:52.861Z,50.21
2023-08-12T09:59:58.237Z,50.2
2023-08-12T10:01:03.625Z,50.2
2023-08-12T10:02:09.055Z,50.06
2023-08-12T10:03:14.498Z,50.2
2023-08-12T10:04:19.825Z,50.33
2023-08-12T10:05:25.265Z,50.62
2023-08-12T10:06:30.567Z,50.74
2023-08-12T10:07:35.964Z,50.8
2023-08-12T10:08:41.258Z,50.77
2023-08-12T10:09:46.711Z,50.71
2023-08-12T10:11:14.450Z,50.59
2023-08-12T10:12:22.810Z,50.43
2023-08-12T10:13:28.130Z,50.49
2023-08-12T10:14:33.436Z,50.46
2023-08-12T10:15:38.918Z,50.29
2023-08-12T10:16:44.282Z,50.21
2023-08-12T10:17:49.801Z,49.82
2023-08-12T10:18:55.169Z,49.8
2023-08-12T10:20:00.680Z,49.54
2023-08-12T10:21:05.992Z,49.67
2023-08-12T10:22:11.854Z,49.48
2023-08-12T10:23:17.370Z,49.59
2023-08-12T10:24:22.687Z,49.69
2023-08-12T10:25:28.022Z,49.83
2023-08-12T10:26:33.393Z,49.79
2023-08-12T10:27:38.734Z,49.78
2023-08-12T10:28:44.050Z,49.79
2023-08-12T10:29:49.405Z,49.69
2023-08-12T10:30:54.766Z,49.87
2023-08-12T10:32:00.198Z,49.95
2023-08-12T10:33:05.521Z,50.07
2023-08-12T10:34:10.833Z,49.99
2023-08-12T10:35:16.162Z,49.68
2023-08-12T10:36:21.477Z,49.72
2023-08-12T10:37:26.762Z,49.53
2023-08-12T10:38:32.154Z,49.68
2023-08-12T10:39:37.613Z,49.57
2023-08-12T10:40:42.919Z,49.53
2023-08-12T10:41:48.237Z,49.7
2023-08-12T10:42:53.557Z,49.92
2023-08-12T10:43:58.891Z,49.86
2023-08-12T10:45:04.247Z,49.88
2023-08-12T10:46:09.656Z,49.9
2023-08-12T10:47:15.366Z,49.91
2023-08-12T10:48:20.945Z,49.94
2023-08-12T10:49:26.278Z,49.93
2023-08-12T10:50:31.613Z,50.03
2023-08-12T10:51:37.029Z,50.15
2023-08-12T10:52:42.360Z,50.43
2023-08-12T10:53:47.926Z,50.67
2023-08-12T10:54:53.222Z,50.79
2023-08-12T10:55:58.555Z,50.9
2023-08-12T10:57:03.900Z,50.6
2023-08-12T10:58:09.327Z,50.23
2023-08-12T10:59:14.660Z,49.81
2023-08-12T11:00:19.989Z,49.69
2023-08-12T11:01:25.401Z,49.63
2023-08-12T11:02:30.952Z,49.66
2023-08-12T11:03:40.609Z,49.76
2023-08-12T11:04:46.051Z,49.74
2023-08-12T11:05:51.343Z,49.8
2023-08-12T11:06:56.641Z,49.76
2023-08-12T11:08:02.451Z,49.73
2023-08-12T11:09:07.916Z,49.46
2023-08-12T11:10:13.282Z,49.2
2023-08-12T11:11:18.796Z,49.07
2023-08-12T11:12:24.104Z,49.12
2023-08-12T11:13:29.425Z,48.85
2023-08-12T11:14:34.703Z,49.05
2023-08-12T11:15:40.006Z,48.85
2023-08-12T11:16:45.530Z,48.91
2023-08-12T11:17:51.080Z,48.86
2023-08-12T11:18:56.414Z,48.97
2023-08-12T11:20:01.791Z,48.94
2023-08-12T11:21:07.151Z,48.73
2023-08-12T11:22:12.989Z,48.68
2023-08-12T11:23:18.578Z,48.65
2023-08-12T11:24:23.905Z,48.7
2023-08-12T11:25:29.215Z,48.53
2023-08-12T11:26:34.557Z,48.68
2023-08-12T11:27:39.900Z,48.68
2023-08-12T11:28:45.229Z,48.72
2023-08-12T11:29:50.552Z,48.71
2023-08-12T11:30:55.945Z,48.66
2023-08-12T11:32:01.236Z,48.7
2023-08-12T11:33:07.027Z,48.51
2023-08-12T11:34:12.369Z,48.58
2023-08-12T11:35:17.736Z,48.5
2023-08-12T11:36:23.062Z,48.18
2023-08-12T11:37:28.523Z,48.23
2023-08-12T11:38:33.825Z,48.33
2023-08-12T11:39:39.139Z,48.36
2023-08-12T11:40:44.454Z,48.28
2023-08-12T11:41:49.765Z,48.3
2023-08-12T11:42:55.089Z,48.42
2023-08-12T11:44:00.438Z,48.46
2023-08-12T11:45:05.769Z,48.43
2023-08-12T11:46:11.206Z,48.16
2023-08-12T11:47:16.647Z,48.24
2023-08-12T11:48:22.024Z,48
2023-08-12T11:49:27.383Z,48.21
2023-08-12T11:50:32.737Z,48.31
2023-08-12T11:51:38.048Z,48.4
2023-08-12T11:52:43.377Z,48.42
2023-08-12T11:53:48.694Z,48.5
2023-08-12T11:54:54.015Z,48.61
2023-08-12T11:55:59.355Z,48.65
2023-08-12T11:57:04.650Z,48.81
2023-08-12T11:58:10.113Z,48.79
2023-08-12T11:59:15.432Z,48.73
2023-08-12T12:00:20.976Z,48.67
2023-08-12T12:01:26.548Z,48.71
2023-08-12T12:02:31.999Z,48.63
2023-08-12T12:03:37.541Z,48.74
2023-08-12T12:04:42.865Z,48.53
2023-08-12T12:05:48.171Z,48.37
2023-08-12T12:06:53.581Z,48.47
2023-08-12T12:07:58.907Z,48.39
2023-08-12T12:09:04.214Z,48.39
2023-08-12T12:10:09.571Z,48.45
2023-08-12T12:11:14.872Z,48.4
2023-08-12T12:12:20.969Z,48.13
2023-08-12T12:13:26.619Z,48.39
2023-08-12T12:14:31.889Z,48.37
2023-08-12T12:15:37.200Z,48.63
2023-08-12T12:16:42.663Z,48.84
2023-08-12T12:17:48.262Z,49.02
2023-08-12T12:18:54.325Z,49.05
2023-08-12T12:19:59.633Z,48.99
2023-08-12T12:21:04.929Z,48.88
2023-08-12T12:22:10.475Z,48.98
2023-08-12T12:23:16.305Z,49.04
2023-08-12T12:24:21.680Z,49.08
2023-08-12T12:25:27.020Z,49.08
2023-08-12T12:26:32.394Z,49.15
2023-08-12T12:27:37.674Z,49.29
2023-08-12T12:28:43.022Z,49.33
2023-08-12T12:29:48.388Z,49.37
2023-08-12T12:30:53.821Z,49.38
2023-08-12T12:31:59.208Z,49.5
2023-08-12T12:33:04.614Z,49.53
2023-08-12T12:34:09.958Z,49.5
2023-08-12T12:35:15.378Z,49.46
2023-08-12T12:36:20.681Z,49.27
2023-08-12T12:37:26.080Z,49.06
2023-08-12T12:38:31.512Z,49.13
2023-08-12T12:39:36.842Z,49.34
2023-08-12T12:40:42.217Z,49.31
2023-08-12T12:41:50.933Z,49.26
2023-08-12T12:42:56.236Z,49.42
2023-08-12T12:44:01.594Z,49.39
2023-08-12T12:45:07.029Z,49.56
2023-08-12T12:46:12.424Z,49.62
2023-08-12T12:47:17.757Z,49.67
2023-08-12T12:48:23.112Z,49.68
2023-08-12T12:49:28.437Z,49.5
2023-08-12T12:50:33.758Z,49.48
2023-08-12T12:51:39.074Z,49.48
2023-08-12T12:52:47.403Z,49.58
2023-08-12T12:53:52.815Z,49.59
2023-08-12T12:54:58.200Z,49.6
2023-08-12T12:56:03.559Z,49.49
2023-08-12T12:57:08.856Z,49.51
2023-08-12T12:58:15.394Z,49.58
2023-08-12T12:59:20.722Z,49.59
2023-08-12T13:00:26.105Z,49.49
2023-08-12T13:01:31.532Z,49.38
2023-08-12T13:02:37.082Z,49.46
2023-08-12T13:03:42.729Z,49.57
2023-08-12T13:04:48.212Z,49.68
2023-08-12T13:05:53.692Z,49.9
2023-08-12T13:06:59.103Z,49.96
2023-08-12T13:08:04.437Z,49.89
2023-08-12T13:09:09.740Z,49.61
2023-08-12T13:10:15.091Z,49.59
2023-08-12T13:11:20.545Z,49.47
2023-08-12T13:12:26.045Z,49.49
2023-08-12T13:13:31.484Z,49.51
2023-08-12T13:14:36.774Z,49.59
2023-08-12T13:15:42.257Z,49.63
2023-08-12T13:16:47.587Z,49.71
2023-08-12T13:17:53.075Z,49.76
2023-08-12T13:18:58.435Z,49.83
2023-08-12T13:20:03.764Z,49.98
2023-08-12T13:21:09.096Z,50.12
2023-08-12T13:22:15.164Z,50
2023-08-12T13:23:20.647Z,49.94
2023-08-12T13:24:26.456Z,49.94
2023-08-12T13:25:32.396Z,49.98
2023-08-12T13:26:37.728Z,49.89
2023-08-12T13:27:43.049Z,49.78
2023-08-12T13:28:48.380Z,49.86
2023-08-12T13:29:53.729Z,49.8
2023-08-12T13:30:59.064Z,49.7
2023-08-12T13:32:04.536Z,49.69
2023-08-12T13:33:10.261Z,49.73
2023-08-12T13:34:15.609Z,49.75
2023-08-12T13:35:20.932Z,49.75
2023-08-12T13:36:26.263Z,49.72
2023-08-12T13:37:31.591Z,49.74
2023-08-12T13:38:36.929Z,49.57
2023-08-12T13:39:42.256Z,49.51
2023-08-12T13:40:47.557Z,49.38
2023-08-12T13:41:52.874Z,49.29
2023-08-12T13:42:58.262Z,49.35
2023-08-12T13:44:03.566Z,49.12
2023-08-12T13:45:08.891Z,48.87
2023-08-12T13:46:14.302Z,48.74
2023-08-12T13:47:19.639Z,48.61
2023-08-12T13:48:24.974Z,48.64
2023-08-12T13:49:30.301Z,48.85
2023-08-12T13:50:35.641Z,49
2023-08-12T13:51:40.956Z,49.13
2023-08-12T13:52:46.270Z,49.22
2023-08-12T13:53:51.590Z,49.16
2023-08-12T13:54:56.880Z,48.95
2023-08-12T13:56:02.184Z,48.8
2023-08-12T13:57:07.496Z,48.48
2023-08-12T13:58:12.812Z,48.48
2023-08-12T13:59:18.288Z,48.42
2023-08-12T14:00:23.755Z,48.68
2023-08-12T14:01:29.268Z,48.43
2023-08-12T14:02:34.781Z,48.31
2023-08-12T14:03:40.168Z,48.35
2023-08-12T14:04:45.524Z,48.38
2023-08-12T14:05:51.079Z,48.4
2023-08-12T14:06:56.450Z,48.28
2023-08-12T14:08:01.796Z,48.36
2023-08-12T14:09:07.143Z,48.42